sensor_id;sensor_type;location;lat;lon;timestamp;P1;durP1;ratioP1;P2;durP2;ratioP2
23716;SDS011;22094;52.130;5.598;2022-10-26T00:00:48;24.23;;;15.18;;
23716;SDS011;22094;52.130;5.598;2022-10-26T00:03:14;28.55;;;14.65;;
23716;SDS011;22094;52.130;5.598;2022-10-26T00:05:40;25.02;;;13.88;;
23716;SDS011;22094;52.130;5.598;2022-10-26T00:08:06;27.92;;;15.18;;
23716;SDS011;22094;52.130;5.598;2022-10-26T00:10:35;28.20;;;15.88;;
23716;SDS011;22094;52.130;5.598;2022-10-26T00:13:03;27.65;;;15.60;;
23716;SDS011;22094;52.130;5.598;2022-10-26T00:15:30;34.83;;;16.58;;
23716;SDS011;22094;52.130;5.598;2022-10-26T00:17:56;28.60;;;15.82;;
23716;SDS011;22094;52.130;5.598;2022-10-26T00:20:21;28.33;;;14.88;;
23716;SDS011;22094;52.130;5.598;2022-10-26T00:22:47;32.53;;;15.70;;
23716;SDS011;22094;52.130;5.598;2022-10-26T00:25:12;30.75;;;15.80;;
23716;SDS011;22094;52.130;5.598;2022-10-26T00:27:38;31.77;;;15.88;;
23716;SDS011;22094;52.130;5.598;2022-10-26T00:30:04;32.45;;;16.40;;
23716;SDS011;22094;52.130;5.598;2022-10-26T00:32:31;35.05;;;17.92;;
23716;SDS011;22094;52.130;5.598;2022-10-26T00:34:56;40.97;;;18.98;;
23716;SDS011;22094;52.130;5.598;2022-10-26T00:37:22;47.47;;;19.98;;
23716;SDS011;22094;52.130;5.598;2022-10-26T00:39:48;48.88;;;22.45;;
23716;SDS011;22094;52.130;5.598;2022-10-26T00:42:15;44.95;;;22.85;;
23716;SDS011;22094;52.130;5.598;2022-10-26T00:44:52;46.53;;;23.35;;
23716;SDS011;22094;52.130;5.598;2022-10-26T00:47:33;53.22;;;23.80;;
23716;SDS011;22094;52.130;5.598;2022-10-26T00:50:02;48.58;;;21.90;;
23716;SDS011;22094;52.130;5.598;2022-10-26T00:52:34;38.30;;;22.23;;
23716;SDS011;22094;52.130;5.598;2022-10-26T00:55:01;52.97;;;23.67;;
23716;SDS011;22094;52.130;5.598;2022-10-26T00:57:26;39.20;;;21.63;;
23716;SDS011;22094;52.130;5.598;2022-10-26T00:59:52;46.75;;;22.10;;
23716;SDS011;22094;52.130;5.598;2022-10-26T01:02:19;48.08;;;23.55;;
23716;SDS011;22094;52.130;5.598;2022-10-26T01:04:45;42.47;;;21.85;;
23716;SDS011;22094;52.130;5.598;2022-10-26T01:07:11;37.13;;;20.77;;
23716;SDS011;22094;52.130;5.598;2022-10-26T01:09:38;41.85;;;20.48;;
23716;SDS011;22094;52.130;5.598;2022-10-26T01:12:04;40.17;;;20.60;;
23716;SDS011;22094;52.130;5.598;2022-10-26T01:14:29;36.80;;;19.08;;
23716;SDS011;22094;52.130;5.598;2022-10-26T01:17:19;29.42;;;17.15;;
23716;SDS011;22094;52.130;5.598;2022-10-26T01:20:18;34.03;;;17.65;;
23716;SDS011;22094;52.130;5.598;2022-10-26T01:29:01;29.08;;;16.33;;
23716;SDS011;22094;52.130;5.598;2022-10-26T01:31:34;28.17;;;15.70;;
23716;SDS011;22094;52.130;5.598;2022-10-26T01:34:08;26.30;;;15.23;;
23716;SDS011;22094;52.130;5.598;2022-10-26T01:36:48;30.17;;;16.95;;
23716;SDS011;22094;52.130;5.598;2022-10-26T01:39:28;26.75;;;15.57;;
23716;SDS011;22094;52.130;5.598;2022-10-26T01:42:09;27.05;;;16.08;;
23716;SDS011;22094;52.130;5.598;2022-10-26T01:44:38;23.92;;;14.88;;
23716;SDS011;22094;52.130;5.598;2022-10-26T01:47:11;31.27;;;16.25;;
23716;SDS011;22094;52.130;5.598;2022-10-26T01:49:41;27.90;;;15.68;;
23716;SDS011;22094;52.130;5.598;2022-10-26T01:52:22;27.00;;;16.27;;
23716;SDS011;22094;52.130;5.598;2022-10-26T01:54:48;27.40;;;14.93;;
23716;SDS011;22094;52.130;5.598;2022-10-26T01:57:14;29.42;;;15.88;;
23716;SDS011;22094;52.130;5.598;2022-10-26T02:05:31;26.08;;;15.18;;
23716;SDS011;22094;52.130;5.598;2022-10-26T02:10:43;23.48;;;14.32;;
23716;SDS011;22094;52.130;5.598;2022-10-26T02:18:44;24.85;;;13.65;;
23716;SDS011;22094;52.130;5.598;2022-10-26T02:21:17;26.73;;;14.38;;
23716;SDS011;22094;52.130;5.598;2022-10-26T02:23:46;24.30;;;13.52;;
23716;SDS011;22094;52.130;5.598;2022-10-26T02:26:14;22.63;;;13.48;;
23716;SDS011;22094;52.130;5.598;2022-10-26T02:28:44;22.20;;;13.55;;
23716;SDS011;22094;52.130;5.598;2022-10-26T02:31:14;22.52;;;13.68;;
23716;SDS011;22094;52.130;5.598;2022-10-26T02:33:43;27.00;;;12.85;;
23716;SDS011;22094;52.130;5.598;2022-10-26T02:36:13;22.85;;;12.95;;
23716;SDS011;22094;52.130;5.598;2022-10-26T02:38:44;30.63;;;12.50;;
23716;SDS011;22094;52.130;5.598;2022-10-26T02:41:11;19.05;;;11.80;;
23716;SDS011;22094;52.130;5.598;2022-10-26T02:43:44;21.77;;;12.48;;
23716;SDS011;22094;52.130;5.598;2022-10-26T02:46:16;19.60;;;12.65;;
23716;SDS011;22094;52.130;5.598;2022-10-26T02:48:44;27.25;;;13.57;;
23716;SDS011;22094;52.130;5.598;2022-10-26T02:51:23;26.27;;;12.98;;
23716;SDS011;22094;52.130;5.598;2022-10-26T02:53:53;27.02;;;12.90;;
23716;SDS011;22094;52.130;5.598;2022-10-26T02:56:33;18.33;;;12.02;;
23716;SDS011;22094;52.130;5.598;2022-10-26T02:59:21;21.33;;;11.90;;
23716;SDS011;22094;52.130;5.598;2022-10-26T03:01:49;20.23;;;11.40;;
23716;SDS011;22094;52.130;5.598;2022-10-26T03:04:17;21.60;;;11.85;;
23716;SDS011;22094;52.130;5.598;2022-10-26T03:06:50;21.63;;;12.13;;
23716;SDS011;22094;52.130;5.598;2022-10-26T03:09:17;20.20;;;12.38;;
23716;SDS011;22094;52.130;5.598;2022-10-26T03:11:42;21.33;;;12.57;;
23716;SDS011;22094;52.130;5.598;2022-10-26T03:14:08;21.73;;;12.48;;
23716;SDS011;22094;52.130;5.598;2022-10-26T03:16:33;24.15;;;13.73;;
23716;SDS011;22094;52.130;5.598;2022-10-26T03:18:59;23.20;;;14.35;;
23716;SDS011;22094;52.130;5.598;2022-10-26T03:21:24;27.90;;;15.60;;
23716;SDS011;22094;52.130;5.598;2022-10-26T03:23:50;32.15;;;14.68;;
23716;SDS011;22094;52.130;5.598;2022-10-26T03:26:15;22.00;;;14.48;;
23716;SDS011;22094;52.130;5.598;2022-10-26T03:28:41;27.15;;;15.02;;
23716;SDS011;22094;52.130;5.598;2022-10-26T03:31:07;26.58;;;14.30;;
23716;SDS011;22094;52.130;5.598;2022-10-26T03:33:33;25.33;;;12.95;;
23716;SDS011;22094;52.130;5.598;2022-10-26T03:35:58;20.35;;;12.55;;
23716;SDS011;22094;52.130;5.598;2022-10-26T03:38:24;16.92;;;11.63;;
23716;SDS011;22094;52.130;5.598;2022-10-26T03:40:49;17.05;;;11.15;;
23716;SDS011;22094;52.130;5.598;2022-10-26T03:43:16;19.98;;;11.07;;
23716;SDS011;22094;52.130;5.598;2022-10-26T03:45:41;18.80;;;10.85;;
23716;SDS011;22094;52.130;5.598;2022-10-26T03:48:07;20.88;;;10.32;;
23716;SDS011;22094;52.130;5.598;2022-10-26T03:50:32;17.33;;;10.65;;
23716;SDS011;22094;52.130;5.598;2022-10-26T03:52:58;18.25;;;10.18;;
23716;SDS011;22094;52.130;5.598;2022-10-26T03:55:23;15.82;;;9.73;;
23716;SDS011;22094;52.130;5.598;2022-10-26T03:57:49;17.17;;;9.55;;
23716;SDS011;22094;52.130;5.598;2022-10-26T04:00:15;14.05;;;9.73;;
23716;SDS011;22094;52.130;5.598;2022-10-26T04:02:42;17.65;;;9.25;;
23716;SDS011;22094;52.130;5.598;2022-10-26T04:05:12;15.32;;;9.52;;
23716;SDS011;22094;52.130;5.598;2022-10-26T04:07:38;16.90;;;9.30;;
23716;SDS011;22094;52.130;5.598;2022-10-26T04:10:04;13.80;;;9.10;;
23716;SDS011;22094;52.130;5.598;2022-10-26T04:12:30;18.65;;;9.85;;
23716;SDS011;22094;52.130;5.598;2022-10-26T04:14:56;20.40;;;9.27;;
23716;SDS011;22094;52.130;5.598;2022-10-26T04:17:22;22.33;;;9.85;;
23716;SDS011;22094;52.130;5.598;2022-10-26T04:19:48;13.52;;;9.20;;
23716;SDS011;22094;52.130;5.598;2022-10-26T04:22:14;17.83;;;9.57;;
23716;SDS011;22094;52.130;5.598;2022-10-26T04:24:40;14.55;;;8.95;;
23716;SDS011;22094;52.130;5.598;2022-10-26T04:27:05;16.30;;;9.07;;
23716;SDS011;22094;52.130;5.598;2022-10-26T04:29:31;15.65;;;9.40;;
23716;SDS011;22094;52.130;5.598;2022-10-26T04:31:56;16.42;;;9.02;;
23716;SDS011;22094;52.130;5.598;2022-10-26T04:34:22;14.23;;;8.90;;
23716;SDS011;22094;52.130;5.598;2022-10-26T04:36:48;19.20;;;9.93;;
23716;SDS011;22094;52.130;5.598;2022-10-26T04:39:13;15.20;;;9.43;;
23716;SDS011;22094;52.130;5.598;2022-10-26T04:41:39;14.32;;;8.73;;
23716;SDS011;22094;52.130;5.598;2022-10-26T04:44:04;16.33;;;9.27;;
23716;SDS011;22094;52.130;5.598;2022-10-26T04:46:30;22.15;;;10.73;;
23716;SDS011;22094;52.130;5.598;2022-10-26T04:48:56;22.77;;;10.00;;
23716;SDS011;22094;52.130;5.598;2022-10-26T04:51:21;15.10;;;9.15;;
23716;SDS011;22094;52.130;5.598;2022-10-26T04:53:47;16.65;;;10.07;;
23716;SDS011;22094;52.130;5.598;2022-10-26T04:56:12;18.10;;;9.27;;
23716;SDS011;22094;52.130;5.598;2022-10-26T04:58:38;18.10;;;10.00;;
23716;SDS011;22094;52.130;5.598;2022-10-26T05:01:03;15.80;;;9.75;;
23716;SDS011;22094;52.130;5.598;2022-10-26T05:03:29;19.35;;;10.23;;
23716;SDS011;22094;52.130;5.598;2022-10-26T05:05:57;15.15;;;10.07;;
23716;SDS011;22094;52.130;5.598;2022-10-26T05:08:23;14.88;;;10.32;;
23716;SDS011;22094;52.130;5.598;2022-10-26T05:10:49;19.58;;;10.15;;
23716;SDS011;22094;52.130;5.598;2022-10-26T05:13:15;16.48;;;9.43;;
23716;SDS011;22094;52.130;5.598;2022-10-26T05:15:41;16.67;;;9.65;;
23716;SDS011;22094;52.130;5.598;2022-10-26T05:18:06;19.52;;;9.85;;
23716;SDS011;22094;52.130;5.598;2022-10-26T05:20:33;17.85;;;9.90;;
23716;SDS011;22094;52.130;5.598;2022-10-26T05:23:00;18.67;;;10.10;;
23716;SDS011;22094;52.130;5.598;2022-10-26T05:25:31;17.55;;;10.00;;
23716;SDS011;22094;52.130;5.598;2022-10-26T05:27:59;27.40;;;10.90;;
23716;SDS011;22094;52.130;5.598;2022-10-26T05:30:27;18.65;;;10.05;;
23716;SDS011;22094;52.130;5.598;2022-10-26T05:32:53;18.90;;;9.90;;
23716;SDS011;22094;52.130;5.598;2022-10-26T05:35:22;20.63;;;10.55;;
23716;SDS011;22094;52.130;5.598;2022-10-26T05:37:49;19.45;;;10.65;;
23716;SDS011;22094;52.130;5.598;2022-10-26T05:40:16;25.52;;;11.43;;
23716;SDS011;22094;52.130;5.598;2022-10-26T05:42:44;18.92;;;11.38;;
23716;SDS011;22094;52.130;5.598;2022-10-26T05:45:32;23.08;;;11.10;;
23716;SDS011;22094;52.130;5.598;2022-10-26T05:47:58;26.50;;;10.60;;
23716;SDS011;22094;52.130;5.598;2022-10-26T05:50:23;19.27;;;10.57;;
23716;SDS011;22094;52.130;5.598;2022-10-26T05:52:49;21.02;;;10.90;;
23716;SDS011;22094;52.130;5.598;2022-10-26T05:55:15;27.63;;;11.30;;
23716;SDS011;22094;52.130;5.598;2022-10-26T05:57:42;19.05;;;10.73;;
23716;SDS011;22094;52.130;5.598;2022-10-26T06:00:09;17.13;;;10.35;;
23716;SDS011;22094;52.130;5.598;2022-10-26T06:08:24;17.85;;;10.30;;
23716;SDS011;22094;52.130;5.598;2022-10-26T06:11:12;18.83;;;10.88;;
23716;SDS011;22094;52.130;5.598;2022-10-26T06:13:38;19.95;;;10.23;;
23716;SDS011;22094;52.130;5.598;2022-10-26T06:18:47;21.42;;;10.32;;
23716;SDS011;22094;52.130;5.598;2022-10-26T06:21:22;19.42;;;9.93;;
23716;SDS011;22094;52.130;5.598;2022-10-26T06:24:11;18.23;;;10.35;;
23716;SDS011;22094;52.130;5.598;2022-10-26T06:32:26;18.83;;;9.73;;
23716;SDS011;22094;52.130;5.598;2022-10-26T06:34:54;16.42;;;9.13;;
23716;SDS011;22094;52.130;5.598;2022-10-26T06:37:46;18.20;;;9.40;;
23716;SDS011;22094;52.130;5.598;2022-10-26T06:40:13;14.43;;;8.82;;
23716;SDS011;22094;52.130;5.598;2022-10-26T06:42:40;16.13;;;9.38;;
23716;SDS011;22094;52.130;5.598;2022-10-26T06:45:10;16.50;;;9.10;;
23716;SDS011;22094;52.130;5.598;2022-10-26T06:47:42;14.35;;;8.48;;
23716;SDS011;22094;52.130;5.598;2022-10-26T06:50:20;18.88;;;8.95;;
23716;SDS011;22094;52.130;5.598;2022-10-26T06:55:41;15.25;;;9.18;;
23716;SDS011;22094;52.130;5.598;2022-10-26T06:58:10;17.67;;;8.60;;
23716;SDS011;22094;52.130;5.598;2022-10-26T07:00:40;20.52;;;9.07;;
23716;SDS011;22094;52.130;5.598;2022-10-26T07:03:06;16.80;;;9.40;;
23716;SDS011;22094;52.130;5.598;2022-10-26T07:05:32;20.20;;;9.25;;
23716;SDS011;22094;52.130;5.598;2022-10-26T07:07:57;18.55;;;9.32;;
23716;SDS011;22094;52.130;5.598;2022-10-26T07:10:23;15.82;;;9.00;;
23716;SDS011;22094;52.130;5.598;2022-10-26T07:12:49;16.80;;;8.82;;
23716;SDS011;22094;52.130;5.598;2022-10-26T07:15:14;16.90;;;8.20;;
23716;SDS011;22094;52.130;5.598;2022-10-26T07:17:44;13.80;;;8.35;;
23716;SDS011;22094;52.130;5.598;2022-10-26T07:20:11;17.65;;;7.93;;
23716;SDS011;22094;52.130;5.598;2022-10-26T07:22:38;13.32;;;8.00;;
23716;SDS011;22094;52.130;5.598;2022-10-26T07:25:04;14.60;;;8.20;;
23716;SDS011;22094;52.130;5.598;2022-10-26T07:27:31;15.27;;;9.55;;
23716;SDS011;22094;52.130;5.598;2022-10-26T07:29:57;20.50;;;9.02;;
23716;SDS011;22094;52.130;5.598;2022-10-26T07:32:23;12.82;;;7.15;;
23716;SDS011;22094;52.130;5.598;2022-10-26T07:34:48;11.18;;;6.85;;
23716;SDS011;22094;52.130;5.598;2022-10-26T07:37:14;11.85;;;7.00;;
23716;SDS011;22094;52.130;5.598;2022-10-26T07:39:39;13.05;;;7.20;;
23716;SDS011;22094;52.130;5.598;2022-10-26T07:42:05;12.23;;;6.10;;
23716;SDS011;22094;52.130;5.598;2022-10-26T07:44:30;14.10;;;6.05;;
23716;SDS011;22094;52.130;5.598;2022-10-26T07:46:56;10.02;;;5.53;;
23716;SDS011;22094;52.130;5.598;2022-10-26T07:49:22;12.38;;;5.50;;
23716;SDS011;22094;52.130;5.598;2022-10-26T07:51:48;9.65;;;5.35;;
23716;SDS011;22094;52.130;5.598;2022-10-26T07:54:14;7.53;;;4.68;;
23716;SDS011;22094;52.130;5.598;2022-10-26T07:56:39;7.90;;;4.63;;
23716;SDS011;22094;52.130;5.598;2022-10-26T07:59:05;8.25;;;4.35;;
23716;SDS011;22094;52.130;5.598;2022-10-26T08:01:31;8.68;;;4.93;;
23716;SDS011;22094;52.130;5.598;2022-10-26T08:03:56;13.07;;;4.88;;
23716;SDS011;22094;52.130;5.598;2022-10-26T08:06:22;8.25;;;4.20;;
23716;SDS011;22094;52.130;5.598;2022-10-26T08:08:48;6.63;;;4.03;;
23716;SDS011;22094;52.130;5.598;2022-10-26T08:11:15;5.72;;;4.10;;
23716;SDS011;22094;52.130;5.598;2022-10-26T08:13:41;11.13;;;5.80;;
23716;SDS011;22094;52.130;5.598;2022-10-26T08:16:07;11.57;;;5.38;;
23716;SDS011;22094;52.130;5.598;2022-10-26T08:18:33;6.30;;;3.88;;
23716;SDS011;22094;52.130;5.598;2022-10-26T08:21:03;7.25;;;3.60;;
23716;SDS011;22094;52.130;5.598;2022-10-26T08:23:31;9.13;;;3.55;;
23716;SDS011;22094;52.130;5.598;2022-10-26T08:25:58;8.10;;;3.80;;
23716;SDS011;22094;52.130;5.598;2022-10-26T08:28:24;7.25;;;3.30;;
23716;SDS011;22094;52.130;5.598;2022-10-26T08:30:50;8.13;;;3.30;;
23716;SDS011;22094;52.130;5.598;2022-10-26T08:33:15;5.85;;;3.45;;
23716;SDS011;22094;52.130;5.598;2022-10-26T08:35:41;4.00;;;3.03;;
23716;SDS011;22094;52.130;5.598;2022-10-26T08:38:07;4.47;;;3.35;;
23716;SDS011;22094;52.130;5.598;2022-10-26T08:40:34;8.15;;;3.47;;
23716;SDS011;22094;52.130;5.598;2022-10-26T08:48:54;6.55;;;3.10;;
23716;SDS011;22094;52.130;5.598;2022-10-26T08:51:25;7.88;;;3.80;;
23716;SDS011;22094;52.130;5.598;2022-10-26T08:54:00;6.38;;;3.55;;
23716;SDS011;22094;52.130;5.598;2022-10-26T08:56:38;5.50;;;3.60;;
23716;SDS011;22094;52.130;5.598;2022-10-26T09:01:57;7.60;;;3.67;;
23716;SDS011;22094;52.130;5.598;2022-10-26T09:04:26;8.25;;;3.58;;
23716;SDS011;22094;52.130;5.598;2022-10-26T09:12:46;7.72;;;4.32;;
23716;SDS011;22094;52.130;5.598;2022-10-26T09:15:17;6.82;;;3.97;;
23716;SDS011;22094;52.130;5.598;2022-10-26T09:20:55;8.90;;;4.05;;
23716;SDS011;22094;52.130;5.598;2022-10-26T09:29:16;6.00;;;4.20;;
23716;SDS011;22094;52.130;5.598;2022-10-26T09:31:44;8.60;;;3.95;;
23716;SDS011;22094;52.130;5.598;2022-10-26T09:34:17;7.25;;;4.35;;
23716;SDS011;22094;52.130;5.598;2022-10-26T09:36:50;7.82;;;4.45;;
23716;SDS011;22094;52.130;5.598;2022-10-26T09:39:23;8.18;;;4.40;;
23716;SDS011;22094;52.130;5.598;2022-10-26T09:42:14;9.35;;;4.22;;
23716;SDS011;22094;52.130;5.598;2022-10-26T09:44:49;10.13;;;4.45;;
23716;SDS011;22094;52.130;5.598;2022-10-26T09:49:47;8.27;;;4.22;;
23716;SDS011;22094;52.130;5.598;2022-10-26T09:52:19;8.70;;;3.90;;
23716;SDS011;22094;52.130;5.598;2022-10-26T09:54:45;8.02;;;3.92;;
23716;SDS011;22094;52.130;5.598;2022-10-26T09:57:12;6.07;;;3.88;;
23716;SDS011;22094;52.130;5.598;2022-10-26T09:59:41;8.82;;;4.38;;
23716;SDS011;22094;52.130;5.598;2022-10-26T10:04:56;9.13;;;4.22;;
23716;SDS011;22094;52.130;5.598;2022-10-26T10:07:22;7.28;;;3.70;;
23716;SDS011;22094;52.130;5.598;2022-10-26T10:12:38;7.90;;;4.03;;
23716;SDS011;22094;52.130;5.598;2022-10-26T10:15:12;11.13;;;3.90;;
23716;SDS011;22094;52.130;5.598;2022-10-26T10:17:45;6.88;;;3.95;;
23716;SDS011;22094;52.130;5.598;2022-10-26T10:20:16;5.47;;;3.90;;
23716;SDS011;22094;52.130;5.598;2022-10-26T10:22:57;13.18;;;4.63;;
23716;SDS011;22094;52.130;5.598;2022-10-26T10:25:31;9.60;;;4.10;;
23716;SDS011;22094;52.130;5.598;2022-10-26T10:28:02;7.82;;;3.83;;
23716;SDS011;22094;52.130;5.598;2022-10-26T10:30:52;10.82;;;3.80;;
23716;SDS011;22094;52.130;5.598;2022-10-26T10:33:21;13.85;;;4.15;;
23716;SDS011;22094;52.130;5.598;2022-10-26T10:35:48;9.75;;;3.83;;
23716;SDS011;22094;52.130;5.598;2022-10-26T10:38:16;7.65;;;3.88;;
23716;SDS011;22094;52.130;5.598;2022-10-26T10:40:51;6.75;;;4.00;;
23716;SDS011;22094;52.130;5.598;2022-10-26T10:43:19;9.90;;;4.15;;
23716;SDS011;22094;52.130;5.598;2022-10-26T10:45:46;6.88;;;3.83;;
23716;SDS011;22094;52.130;5.598;2022-10-26T10:48:17;7.63;;;3.95;;
23716;SDS011;22094;52.130;5.598;2022-10-26T10:50:56;7.38;;;3.55;;
23716;SDS011;22094;52.130;5.598;2022-10-26T11:01:29;9.32;;;3.80;;
23716;SDS011;22094;52.130;5.598;2022-10-26T11:06:59;11.70;;;4.13;;
23716;SDS011;22094;52.130;5.598;2022-10-26T11:09:27;7.72;;;3.75;;
23716;SDS011;22094;52.130;5.598;2022-10-26T11:11:57;6.53;;;3.65;;
23716;SDS011;22094;52.130;5.598;2022-10-26T11:14:46;7.65;;;4.00;;
23716;SDS011;22094;52.130;5.598;2022-10-26T11:17:21;9.65;;;3.92;;
23716;SDS011;22094;52.130;5.598;2022-10-26T11:20:02;10.68;;;3.80;;
23716;SDS011;22094;52.130;5.598;2022-10-26T11:23:01;6.78;;;3.60;;
23716;SDS011;22094;52.130;5.598;2022-10-26T11:25:54;6.28;;;3.70;;
23716;SDS011;22094;52.130;5.598;2022-10-26T11:31:14;8.43;;;3.30;;
23716;SDS011;22094;52.130;5.598;2022-10-26T11:33:48;7.93;;;3.83;;
23716;SDS011;22094;52.130;5.598;2022-10-26T11:36:21;11.27;;;3.70;;
23716;SDS011;22094;52.130;5.598;2022-10-26T11:38:54;10.02;;;3.53;;
23716;SDS011;22094;52.130;5.598;2022-10-26T11:44:16;10.25;;;3.72;;
23716;SDS011;22094;52.130;5.598;2022-10-26T11:46:54;10.55;;;4.10;;
23716;SDS011;22094;52.130;5.598;2022-10-26T11:49:37;9.63;;;3.95;;
23716;SDS011;22094;52.130;5.598;2022-10-26T11:52:36;8.55;;;3.90;;
23716;SDS011;22094;52.130;5.598;2022-10-26T11:55:06;4.60;;;3.65;;
23716;SDS011;22094;52.130;5.598;2022-10-26T11:57:34;8.15;;;4.05;;
23716;SDS011;22094;52.130;5.598;2022-10-26T12:02:37;6.65;;;3.95;;
23716;SDS011;22094;52.130;5.598;2022-10-26T12:05:07;6.82;;;4.00;;
23716;SDS011;22094;52.130;5.598;2022-10-26T12:07:51;11.35;;;4.15;;
23716;SDS011;22094;52.130;5.598;2022-10-26T12:10:30;6.38;;;4.10;;
23716;SDS011;22094;52.130;5.598;2022-10-26T12:15:41;8.85;;;3.90;;
23716;SDS011;22094;52.130;5.598;2022-10-26T12:21:01;4.00;;;3.60;;
23716;SDS011;22094;52.130;5.598;2022-10-26T12:23:32;6.53;;;3.53;;
23716;SDS011;22094;52.130;5.598;2022-10-26T12:28:46;6.95;;;3.70;;
23716;SDS011;22094;52.130;5.598;2022-10-26T12:33:57;7.95;;;3.50;;
23716;SDS011;22094;52.130;5.598;2022-10-26T12:44:38;5.40;;;3.10;;
23716;SDS011;22094;52.130;5.598;2022-10-26T12:57:49;5.15;;;3.05;;
23716;SDS011;22094;52.130;5.598;2022-10-26T13:00:22;6.72;;;2.90;;
23716;SDS011;22094;52.130;5.598;2022-10-26T13:08:07;4.95;;;3.25;;
23716;SDS011;22094;52.130;5.598;2022-10-26T13:10:35;3.78;;;2.70;;
23716;SDS011;22094;52.130;5.598;2022-10-26T13:13:04;5.28;;;3.40;;
23716;SDS011;22094;52.130;5.598;2022-10-26T13:15:38;5.22;;;2.67;;
23716;SDS011;22094;52.130;5.598;2022-10-26T13:20:30;3.90;;;3.05;;
23716;SDS011;22094;52.130;5.598;2022-10-26T13:22:58;6.60;;;3.60;;
23716;SDS011;22094;52.130;5.598;2022-10-26T13:25:25;7.30;;;3.70;;
23716;SDS011;22094;52.130;5.598;2022-10-26T13:27:59;7.50;;;2.97;;
23716;SDS011;22094;52.130;5.598;2022-10-26T13:33:14;4.60;;;3.33;;
23716;SDS011;22094;52.130;5.598;2022-10-26T13:35:44;5.32;;;3.47;;
23716;SDS011;22094;52.130;5.598;2022-10-26T13:38:10;6.68;;;3.63;;
23716;SDS011;22094;52.130;5.598;2022-10-26T13:40:40;6.28;;;3.75;;
23716;SDS011;22094;52.130;5.598;2022-10-26T13:43:09;7.25;;;3.53;;
23716;SDS011;22094;52.130;5.598;2022-10-26T13:45:47;6.65;;;3.83;;
23716;SDS011;22094;52.130;5.598;2022-10-26T13:48:19;7.93;;;3.97;;
23716;SDS011;22094;52.130;5.598;2022-10-26T13:50:50;5.25;;;3.65;;
23716;SDS011;22094;52.130;5.598;2022-10-26T13:55:57;7.03;;;3.38;;
23716;SDS011;22094;52.130;5.598;2022-10-26T13:58:33;4.43;;;3.92;;
23716;SDS011;22094;52.130;5.598;2022-10-26T14:01:29;7.07;;;4.00;;
23716;SDS011;22094;52.130;5.598;2022-10-26T14:03:55;4.82;;;3.78;;
23716;SDS011;22094;52.130;5.598;2022-10-26T14:06:28;7.22;;;3.97;;
23716;SDS011;22094;52.130;5.598;2022-10-26T14:08:56;6.80;;;4.40;;
23716;SDS011;22094;52.130;5.598;2022-10-26T14:11:27;7.95;;;4.63;;
23716;SDS011;22094;52.130;5.598;2022-10-26T14:14:02;5.75;;;4.47;;
23716;SDS011;22094;52.130;5.598;2022-10-26T14:16:28;5.57;;;4.38;;
23716;SDS011;22094;52.130;5.598;2022-10-26T14:18:57;8.40;;;5.10;;
23716;SDS011;22094;52.130;5.598;2022-10-26T14:21:23;8.05;;;5.10;;
23716;SDS011;22094;52.130;5.598;2022-10-26T14:23:50;11.25;;;5.57;;
23716;SDS011;22094;52.130;5.598;2022-10-26T14:28:47;7.82;;;6.10;;
23716;SDS011;22094;52.130;5.598;2022-10-26T14:31:30;9.85;;;5.85;;
23716;SDS011;22094;52.130;5.598;2022-10-26T14:33:57;9.02;;;5.60;;
23716;SDS011;22094;52.130;5.598;2022-10-26T14:37:10;10.60;;;6.10;;
23716;SDS011;22094;52.130;5.598;2022-10-26T14:39:29;9.93;;;6.47;;
23716;SDS011;22094;52.130;5.598;2022-10-26T14:41:55;12.10;;;9.05;;
23716;SDS011;22094;52.130;5.598;2022-10-26T14:44:23;7.50;;;5.30;;
23716;SDS011;22094;52.130;5.598;2022-10-26T14:46:49;6.65;;;5.63;;
23716;SDS011;22094;52.130;5.598;2022-10-26T14:49:26;8.30;;;4.82;;
23716;SDS011;22094;52.130;5.598;2022-10-26T14:51:56;5.38;;;4.88;;
23716;SDS011;22094;52.130;5.598;2022-10-26T14:54:24;6.75;;;4.93;;
23716;SDS011;22094;52.130;5.598;2022-10-26T14:56:52;7.57;;;5.45;;
23716;SDS011;22094;52.130;5.598;2022-10-26T14:59:23;8.68;;;5.35;;
23716;SDS011;22094;52.130;5.598;2022-10-26T15:01:51;9.25;;;5.20;;
23716;SDS011;22094;52.130;5.598;2022-10-26T15:04:30;7.00;;;4.72;;
23716;SDS011;22094;52.130;5.598;2022-10-26T15:07:16;7.95;;;4.68;;
23716;SDS011;22094;52.130;5.598;2022-10-26T15:09:46;6.28;;;4.47;;
23716;SDS011;22094;52.130;5.598;2022-10-26T15:12:32;6.15;;;4.30;;
23716;SDS011;22094;52.130;5.598;2022-10-26T15:15:08;12.13;;;4.43;;
23716;SDS011;22094;52.130;5.598;2022-10-26T15:17:36;5.85;;;4.00;;
23716;SDS011;22094;52.130;5.598;2022-10-26T15:20:04;8.02;;;4.10;;
23716;SDS011;22094;52.130;5.598;2022-10-26T15:22:31;9.63;;;4.10;;
23716;SDS011;22094;52.130;5.598;2022-10-26T15:24:59;6.68;;;3.38;;
23716;SDS011;22094;52.130;5.598;2022-10-26T15:27:28;7.10;;;3.47;;
23716;SDS011;22094;52.130;5.598;2022-10-26T15:32:38;11.65;;;4.00;;
23716;SDS011;22094;52.130;5.598;2022-10-26T15:35:12;7.32;;;4.05;;
23716;SDS011;22094;52.130;5.598;2022-10-26T15:37:38;9.95;;;3.92;;
23716;SDS011;22094;52.130;5.598;2022-10-26T15:40:04;9.93;;;3.92;;
23716;SDS011;22094;52.130;5.598;2022-10-26T15:42:30;6.30;;;3.40;;
23716;SDS011;22094;52.130;5.598;2022-10-26T15:44:56;5.90;;;3.28;;
23716;SDS011;22094;52.130;5.598;2022-10-26T15:47:23;5.05;;;3.45;;
23716;SDS011;22094;52.130;5.598;2022-10-26T15:49:55;8.57;;;3.90;;
23716;SDS011;22094;52.130;5.598;2022-10-26T15:52:21;7.50;;;3.90;;
23716;SDS011;22094;52.130;5.598;2022-10-26T15:54:46;10.13;;;4.10;;
23716;SDS011;22094;52.130;5.598;2022-10-26T15:57:12;12.73;;;4.35;;
23716;SDS011;22094;52.130;5.598;2022-10-26T15:59:39;6.28;;;3.70;;
23716;SDS011;22094;52.130;5.598;2022-10-26T16:02:11;7.32;;;3.60;;
23716;SDS011;22094;52.130;5.598;2022-10-26T16:04:38;4.20;;;3.05;;
23716;SDS011;22094;52.130;5.598;2022-10-26T16:07:03;6.97;;;3.47;;
23716;SDS011;22094;52.130;5.598;2022-10-26T16:09:31;6.78;;;3.40;;
23716;SDS011;22094;52.130;5.598;2022-10-26T16:11:57;8.27;;;3.55;;
23716;SDS011;22094;52.130;5.598;2022-10-26T16:14:22;8.20;;;3.38;;
23716;SDS011;22094;52.130;5.598;2022-10-26T16:16:48;10.02;;;3.95;;
23716;SDS011;22094;52.130;5.598;2022-10-26T16:19:13;16.50;;;13.43;;
23716;SDS011;22094;52.130;5.598;2022-10-26T16:21:39;7.07;;;4.80;;
23716;SDS011;22094;52.130;5.598;2022-10-26T16:24:05;11.95;;;7.93;;
23716;SDS011;22094;52.130;5.598;2022-10-26T16:26:31;7.95;;;3.53;;
23716;SDS011;22094;52.130;5.598;2022-10-26T16:28:57;8.02;;;3.42;;
23716;SDS011;22094;52.130;5.598;2022-10-26T16:31:22;7.30;;;3.42;;
23716;SDS011;22094;52.130;5.598;2022-10-26T16:33:48;5.75;;;2.90;;
23716;SDS011;22094;52.130;5.598;2022-10-26T16:36:14;8.00;;;2.95;;
23716;SDS011;22094;52.130;5.598;2022-10-26T16:38:39;7.30;;;3.03;;
23716;SDS011;22094;52.130;5.598;2022-10-26T16:41:09;6.57;;;3.08;;
23716;SDS011;22094;52.130;5.598;2022-10-26T16:43:40;7.55;;;2.67;;
23716;SDS011;22094;52.130;5.598;2022-10-26T16:46:11;7.40;;;2.88;;
23716;SDS011;22094;52.130;5.598;2022-10-26T16:48:40;9.40;;;2.67;;
23716;SDS011;22094;52.130;5.598;2022-10-26T16:51:07;5.40;;;2.60;;
23716;SDS011;22094;52.130;5.598;2022-10-26T16:53:34;8.48;;;3.00;;
23716;SDS011;22094;52.130;5.598;2022-10-26T16:56:03;8.48;;;3.20;;
23716;SDS011;22094;52.130;5.598;2022-10-26T16:58:30;10.80;;;3.40;;
23716;SDS011;22094;52.130;5.598;2022-10-26T17:00:56;6.88;;;3.22;;
23716;SDS011;22094;52.130;5.598;2022-10-26T17:03:22;7.53;;;2.90;;
23716;SDS011;22094;52.130;5.598;2022-10-26T17:05:53;6.63;;;3.20;;